createdAt,value
2017-11-17T00:01:50.209Z,96683.63
2017-11-17T00:04:17.776Z,96681.94
2017-11-17T00:06:45.362Z,96686.39
2017-11-17T00:09:13.033Z,96678.86
2017-11-17T00:11:40.590Z,96687.41
2017-11-17T00:14:08.199Z,96690.95
2017-11-17T00:16:35.785Z,96691.98
2017-11-17T00:19:03.399Z,96693.80
2017-11-17T00:21:30.972Z,96697.88
2017-11-17T00:23:58.598Z,96699.92
2017-11-17T00:26:26.174Z,96700.91
2017-11-17T00:28:53.717Z,96705.16
2017-11-17T00:31:21.292Z,96704.88
2017-11-17T00:33:48.917Z,96707.87
2017-11-17T00:36:16.491Z,96704.61
2017-11-17T00:38:44.055Z,96706.92
2017-11-17T00:41:11.631Z,96705.24
2017-11-17T00:43:39.216Z,96711.19
2017-11-17T00:46:06.774Z,96709.50
2017-11-17T00:48:34.358Z,96706.97
2017-11-17T00:51:01.942Z,96702.33
2017-11-17T00:53:29.492Z,96705.29
2017-11-17T00:55:57.101Z,96703.30
2017-11-17T00:58:24.647Z,96706.33
2017-11-17T01:00:52.204Z,96704.58
2017-11-17T01:03:19.766Z,96705.95
2017-11-17T01:05:47.318Z,96708.31
2017-11-17T01:08:14.916Z,96704.52
2017-11-17T01:10:42.517Z,96704.15
2017-11-17T01:13:10.078Z,96702.95
2017-11-17T01:15:37.654Z,96700.59
2017-11-17T01:18:05.468Z,96703.50
2017-11-17T01:20:33.037Z,96704.50
2017-11-17T01:23:00.647Z,96709.19
2017-11-17T01:25:28.195Z,96709.20
2017-11-17T01:27:55.780Z,96707.57
2017-11-17T01:30:23.363Z,96714.26
2017-11-17T01:32:50.945Z,96715.75
2017-11-17T01:35:18.499Z,96723.58
2017-11-17T01:37:46.102Z,96724.05
2017-11-17T01:40:13.675Z,96716.95
2017-11-17T01:42:41.247Z,96717.63
2017-11-17T01:45:09.173Z,96721.19
2017-11-17T01:47:36.724Z,96725.58
2017-11-17T01:50:04.316Z,96727.66
2017-11-17T01:52:31.884Z,96735.73
2017-11-17T01:54:59.472Z,96736.52
2017-11-17T01:57:27.059Z,96740.85
2017-11-17T01:59:54.642Z,96743.68
2017-11-17T02:02:22.279Z,96743.97
2017-11-17T02:04:49.870Z,96745.34
2017-11-17T02:07:17.703Z,96748.98
2017-11-17T02:09:45.291Z,96746.02
2017-11-17T02:12:12.881Z,96752.51
2017-11-17T02:14:40.450Z,96749.27
2017-11-17T02:17:08.134Z,96754.84
2017-11-17T02:19:35.693Z,96746.78
2017-11-17T02:22:03.257Z,96750.17
2017-11-17T02:24:30.864Z,96749.02
2017-11-17T02:26:58.437Z,96745.34
2017-11-17T02:29:26.036Z,96743.48
2017-11-17T02:31:53.629Z,96742.05
2017-11-17T02:34:21.182Z,96744.15
2017-11-17T02:36:48.777Z,96751.17
2017-11-17T02:39:16.373Z,96745.63
2017-11-17T02:41:43.990Z,96755.56
2017-11-17T02:44:11.550Z,96751.25
2017-11-17T02:46:39.123Z,96755.40
2017-11-17T02:49:06.744Z,96766.17
2017-11-17T02:51:34.771Z,96757.16
2017-11-17T02:54:02.833Z,96752.98
2017-11-17T02:56:30.425Z,96755.27
2017-11-17T02:58:57.990Z,96756.11
2017-11-17T03:01:25.571Z,96756.96
2017-11-17T03:03:53.195Z,96760.22
2017-11-17T03:06:20.750Z,96759.61
2017-11-17T03:08:48.305Z,96753.64
2017-11-17T03:11:16.104Z,96761.11
2017-11-17T03:13:43.682Z,96756.70
2017-11-17T03:16:11.299Z,96756.46
2017-11-17T03:18:38.890Z,96764.30
2017-11-17T03:21:06.566Z,96767.79
2017-11-17T03:23:34.453Z,96769.71
2017-11-17T03:26:02.235Z,96763.22
2017-11-17T03:28:29.890Z,96761.48
2017-11-17T03:30:57.578Z,96754.27
2017-11-17T03:33:25.158Z,96765.45
2017-11-17T03:35:52.840Z,96761.91
2017-11-17T03:38:20.441Z,96751.85
2017-11-17T03:40:48.040Z,96750.72
2017-11-17T03:43:15.642Z,96759.61
2017-11-17T03:45:43.262Z,96761.64
2017-11-17T03:48:10.863Z,96760.50
2017-11-17T03:50:38.431Z,96755.39
2017-11-17T03:53:06.116Z,96760.31
2017-11-17T03:55:33.723Z,96757.48
2017-11-17T03:58:01.301Z,96765.70
2017-11-17T04:00:28.923Z,96759.22
2017-11-17T04:02:56.487Z,96756.63
2017-11-17T04:05:24.066Z,96754.66
2017-11-17T04:07:51.690Z,96760.30
2017-11-17T04:10:19.285Z,96759.47
2017-11-17T04:12:46.852Z,96759.11
2017-11-17T04:15:14.484Z,96763.66
2017-11-17T04:17:42.047Z,96771.14
2017-11-17T04:20:09.610Z,96764.20
2017-11-17T04:22:37.218Z,96760.66
2017-11-17T04:25:04.829Z,96760.67
2017-11-17T04:27:32.392Z,96765.36
2017-11-17T04:30:00.019Z,96765.00
2017-11-17T04:32:27.578Z,96763.36
2017-11-17T04:34:55.128Z,96766.77
2017-11-17T04:37:23.158Z,96766.39
2017-11-17T04:39:50.722Z,96773.13
2017-11-17T04:42:18.277Z,96772.95
2017-11-17T04:44:45.853Z,96770.17
2017-11-17T04:47:13.424Z,96777.34
2017-11-17T04:49:41.052Z,96781.12
2017-11-17T04:52:08.675Z,96779.87
2017-11-17T04:54:36.240Z,96775.48
2017-11-17T04:57:03.819Z,96774.45
2017-11-17T04:59:31.379Z,96782.06
2017-11-17T05:01:58.944Z,96775.79
2017-11-17T05:04:26.561Z,96776.70
2017-11-17T05:06:54.108Z,96780.06
2017-11-17T05:12:13.672Z,96779.64
2017-11-17T05:14:41.264Z,96776.47
2017-11-17T05:17:08.880Z,96781.04
2017-11-17T05:19:36.519Z,96781.15
2017-11-17T05:22:04.075Z,96794.26
2017-11-17T05:24:35.242Z,96797.00
2017-11-17T05:27:02.842Z,96793.17
2017-11-17T05:29:30.411Z,96796.69
2017-11-17T05:31:57.985Z,96791.56
2017-11-17T05:34:25.582Z,96789.56
2017-11-17T05:36:53.153Z,96781.62
2017-11-17T05:39:20.714Z,96780.56
2017-11-17T05:41:48.287Z,96783.26
2017-11-17T05:44:15.853Z,96779.23
2017-11-17T05:46:43.445Z,96786.44
2017-11-17T05:49:11.038Z,96781.27
2017-11-17T05:51:38.588Z,96786.15
2017-11-17T05:54:06.300Z,96786.94
2017-11-17T05:56:33.853Z,96790.95
2017-11-17T05:59:03.258Z,96788.91
2017-11-17T06:01:30.867Z,96795.52
2017-11-17T06:03:58.428Z,96801.02
2017-11-17T06:06:25.987Z,96805.53
2017-11-17T06:08:53.616Z,96801.73
2017-11-17T06:11:21.168Z,96808.05
2017-11-17T06:13:48.723Z,96807.71
2017-11-17T06:16:16.382Z,96813.83
2017-11-17T06:18:43.937Z,96809.31
2017-11-17T06:21:11.641Z,96813.63
2017-11-17T06:23:39.246Z,96809.59
2017-11-17T06:26:06.815Z,96821.08
2017-11-17T06:28:34.380Z,96816.39
2017-11-17T06:31:01.948Z,96830.28
2017-11-17T06:33:29.822Z,96832.08
2017-11-17T06:35:57.433Z,96825.33
2017-11-17T06:38:25.056Z,96834.66
2017-11-17T06:40:52.675Z,96832.65
2017-11-17T06:43:25.126Z,96836.75
2017-11-17T06:45:52.693Z,96833.42
2017-11-17T06:48:20.412Z,96834.89
2017-11-17T06:50:48.047Z,96841.64
2017-11-17T06:53:15.606Z,96839.05
2017-11-17T06:55:43.235Z,96838.99
2017-11-17T06:58:13.742Z,96834.01
2017-11-17T07:00:41.288Z,96834.33
2017-11-17T07:03:09.120Z,96831.55
2017-11-17T07:05:36.734Z,96828.16
2017-11-17T07:08:04.302Z,96828.77
2017-11-17T07:10:31.872Z,96830.09
2017-11-17T07:12:59.804Z,96825.83
2017-11-17T07:15:27.404Z,96839.02
2017-11-17T07:17:54.953Z,96836.95
2017-11-17T07:20:22.562Z,96831.68
2017-11-17T07:22:50.117Z,96831.27
2017-11-17T07:25:17.670Z,96840.29
2017-11-17T07:27:45.268Z,96836.75
2017-11-17T07:30:12.827Z,96834.09
2017-11-17T07:32:40.378Z,96850.23
2017-11-17T07:35:09.507Z,96839.53
2017-11-17T07:37:37.080Z,96838.69
2017-11-17T07:40:04.626Z,96837.89
2017-11-17T07:42:32.247Z,96834.18
2017-11-17T07:44:59.829Z,96840.86
2017-11-17T07:47:27.646Z,96842.44
2017-11-17T07:49:55.235Z,96844.11
2017-11-17T07:52:22.807Z,96840.88
2017-11-17T07:54:50.355Z,96846.27
2017-11-17T07:57:18.095Z,96852.26
2017-11-17T07:59:45.655Z,96844.95
2017-11-17T08:02:13.295Z,96844.95
2017-11-17T08:04:40.889Z,96849.00
2017-11-17T08:07:08.677Z,96847.13
2017-11-17T08:09:36.958Z,96856.45
2017-11-17T08:12:04.525Z,96854.34
2017-11-17T08:14:32.103Z,96858.69
2017-11-17T08:19:58.763Z,96856.77
2017-11-17T08:22:26.384Z,96863.98
2017-11-17T08:24:54.041Z,96849.52
2017-11-17T08:27:21.624Z,96849.60
2017-11-17T08:29:49.181Z,96849.45
2017-11-17T08:32:16.763Z,96844.52
2017-11-17T08:34:44.324Z,96853.86
2017-11-17T08:37:12.260Z,96853.02
2017-11-17T08:39:39.894Z,96845.60
2017-11-17T08:42:07.457Z,96852.19
2017-11-17T08:44:35.093Z,96850.09
2017-11-17T08:47:02.708Z,96841.23
2017-11-17T08:49:30.257Z,96848.28
2017-11-17T08:51:57.814Z,96846.46
2017-11-17T08:54:25.410Z,96847.01
2017-11-17T08:56:52.975Z,96850.48
2017-11-17T08:59:20.572Z,96869.95
2017-11-17T09:01:48.152Z,96850.08
2017-11-17T09:04:15.808Z,96852.48
2017-11-17T09:06:43.397Z,96842.47
2017-11-17T09:09:11.190Z,96843.03
2017-11-17T09:11:38.793Z,96847.97
2017-11-17T09:14:06.350Z,96841.33
2017-11-17T09:16:34.029Z,96843.92
2017-11-17T09:19:01.582Z,96852.42
2017-11-17T09:21:29.135Z,96847.86
2017-11-17T09:23:56.758Z,96853.63
2017-11-17T09:26:25.118Z,96857.30
2017-11-17T09:28:52.702Z,96856.41
2017-11-17T09:31:20.287Z,96850.73
2017-11-17T09:33:47.879Z,96849.78
2017-11-17T09:36:15.436Z,96859.00
2017-11-17T09:38:43.057Z,96855.56
2017-11-17T09:41:10.622Z,96848.80
2017-11-17T09:43:38.191Z,96853.86
2017-11-17T09:46:05.838Z,96850.12
2017-11-17T09:48:33.423Z,96848.31
2017-11-17T09:51:01.048Z,96850.80
2017-11-17T09:53:28.664Z,96846.73
2017-11-17T09:55:56.260Z,96841.70
2017-11-17T09:58:24.319Z,96846.63
2017-11-17T10:00:51.989Z,96839.12
2017-11-17T10:03:19.575Z,96839.64
2017-11-17T10:05:47.147Z,96845.19
2017-11-17T10:08:14.793Z,96840.42
2017-11-17T10:10:42.365Z,96841.80
2017-11-17T10:13:09.963Z,96838.81
2017-11-17T10:15:37.681Z,96842.62
2017-11-17T10:18:05.443Z,96839.68
2017-11-17T10:20:33.020Z,96835.77
2017-11-17T10:23:00.611Z,96834.06
2017-11-17T10:25:28.256Z,96834.06
2017-11-17T10:27:55.858Z,96842.48
2017-11-17T10:30:23.447Z,96834.55
2017-11-17T10:32:51.049Z,96828.45
2017-11-17T10:35:18.640Z,96829.66
2017-11-17T10:37:46.190Z,96831.55
2017-11-17T10:40:13.849Z,96825.83
2017-11-17T10:42:41.404Z,96826.34
2017-11-17T10:45:09.121Z,96824.25
2017-11-17T10:47:36.828Z,96821.95
2017-11-17T10:50:04.408Z,96822.38
2017-11-17T10:52:32.035Z,96825.36
2017-11-17T10:54:59.613Z,96818.42
2017-11-17T10:57:27.175Z,96819.31
2017-11-17T10:59:57.710Z,96819.25
2017-11-17T11:02:25.289Z,96822.73
2017-11-17T11:04:55.742Z,96831.16
2017-11-17T11:07:23.332Z,96822.73
2017-11-17T11:09:52.078Z,96825.89
2017-11-17T11:12:19.968Z,96821.12
2017-11-17T11:14:47.999Z,96822.73
2017-11-17T11:17:18.209Z,96817.52
2017-11-17T11:19:45.842Z,96816.78
2017-11-17T11:22:15.164Z,96816.34
2017-11-17T11:24:43.012Z,96824.20
2017-11-17T11:27:10.809Z,96827.34
2017-11-17T11:29:38.679Z,96825.53
2017-11-17T11:32:06.277Z,96817.70
2017-11-17T11:34:33.857Z,96826.62
2017-11-17T11:37:01.472Z,96828.55
2017-11-17T11:39:29.082Z,96827.35
2017-11-17T11:41:56.751Z,96829.95
2017-11-17T11:44:26.072Z,96825.46
2017-11-17T11:46:53.688Z,96829.05
2017-11-17T11:49:21.250Z,96827.09
2017-11-17T11:51:49.125Z,96833.20
2017-11-17T11:54:16.924Z,96825.31
2017-11-17T11:56:44.563Z,96822.23
2017-11-17T11:59:12.309Z,96820.14
2017-11-17T12:01:39.926Z,96822.72
2017-11-17T12:04:07.547Z,96821.83
2017-11-17T12:06:35.112Z,96817.95
2017-11-17T12:09:02.725Z,96816.82
2017-11-17T12:11:30.361Z,96821.47
2017-11-17T12:13:57.917Z,96811.34
2017-11-17T12:16:25.498Z,96807.65
2017-11-17T12:18:53.111Z,96810.19
2017-11-17T12:21:20.744Z,96814.16
2017-11-17T12:23:48.309Z,96807.16
2017-11-17T12:26:15.907Z,96816.80
2017-11-17T12:28:43.473Z,96814.02
2017-11-17T12:31:11.304Z,96813.41
2017-11-17T12:33:38.879Z,96811.68
2017-11-17T12:36:06.625Z,96813.09
2017-11-17T12:38:34.185Z,96815.33
2017-11-17T12:41:01.762Z,96814.78
2017-11-17T12:43:29.325Z,96815.31
2017-11-17T12:45:56.895Z,96803.45
2017-11-17T12:48:24.840Z,96810.00
2017-11-17T12:50:52.422Z,96812.59
2017-11-17T12:53:19.993Z,96814.95
2017-11-17T12:55:47.599Z,96810.73
2017-11-17T12:58:15.402Z,96804.66
2017-11-17T13:00:44.025Z,96804.50
2017-11-17T13:03:11.874Z,96806.00
2017-11-17T13:05:39.431Z,96805.02
2017-11-17T13:08:07.038Z,96798.64
2017-11-17T13:10:35.368Z,96799.05
2017-11-17T13:13:02.948Z,96803.66
2017-11-17T13:15:30.549Z,96805.31
2017-11-17T13:17:58.205Z,96798.03
2017-11-17T13:20:25.770Z,96803.49
2017-11-17T13:22:53.382Z,96806.69
2017-11-17T13:25:21.019Z,96805.58
2017-11-17T13:27:48.612Z,96807.38
2017-11-17T13:30:16.199Z,96805.91
2017-11-17T13:32:43.813Z,96807.80
2017-11-17T13:35:11.575Z,96804.66
2017-11-17T13:37:39.168Z,96806.27
2017-11-17T13:40:06.808Z,96809.63
2017-11-17T13:42:35.962Z,96811.56
2017-11-17T13:45:04.289Z,96810.64
2017-11-17T13:47:33.023Z,96812.36
2017-11-17T13:50:00.630Z,96812.00
2017-11-17T13:52:28.210Z,96816.46
2017-11-17T13:54:55.796Z,96806.77
2017-11-17T13:57:23.381Z,96810.62
2017-11-17T13:59:50.953Z,96812.27
2017-11-17T14:02:18.549Z,96813.88
2017-11-17T14:04:46.112Z,96814.47
2017-11-17T14:07:13.682Z,96817.14
2017-11-17T14:09:41.345Z,96812.77
2017-11-17T14:12:09.045Z,96806.70
2017-11-17T14:14:36.636Z,96813.58
2017-11-17T14:17:04.236Z,96808.11
2017-11-17T14:19:31.794Z,96811.08
2017-11-17T14:21:59.361Z,96808.34
2017-11-17T14:24:26.965Z,96807.55
2017-11-17T14:26:54.514Z,96811.16
2017-11-17T14:29:22.112Z,96813.30
2017-11-17T14:31:49.900Z,96812.66
2017-11-17T14:34:17.517Z,96801.25
2017-11-17T14:36:45.092Z,96804.28
2017-11-17T14:39:12.937Z,96805.88
2017-11-17T14:41:40.527Z,96803.31
2017-11-17T14:44:08.111Z,96806.77
2017-11-17T14:46:35.671Z,96796.98
2017-11-17T14:49:03.261Z,96796.58
2017-11-17T14:51:31.309Z,96795.52
2017-11-17T14:53:58.893Z,96794.47
2017-11-17T14:56:26.454Z,96794.63
2017-11-17T14:58:54.036Z,96789.31
2017-11-17T15:01:21.650Z,96785.65
2017-11-17T15:03:49.244Z,96794.69
2017-11-17T15:06:16.844Z,96788.91
2017-11-17T15:08:44.437Z,96789.16
2017-11-17T15:11:13.790Z,96786.91
2017-11-17T15:13:42.555Z,96790.22
2017-11-17T15:16:10.236Z,96785.29
2017-11-17T15:18:37.875Z,96786.55
2017-11-17T15:21:08.109Z,96790.72
2017-11-17T15:23:36.455Z,96791.98
2017-11-17T15:26:04.071Z,96796.96
2017-11-17T15:28:31.647Z,96796.12
2017-11-17T15:30:59.259Z,96795.77
2017-11-17T15:33:27.465Z,96800.36
2017-11-17T15:35:55.054Z,96788.25
2017-11-17T15:38:22.659Z,96798.23
2017-11-17T15:40:50.263Z,96797.63
2017-11-17T15:43:19.234Z,96796.58
2017-11-17T15:45:46.991Z,96798.86
2017-11-17T15:48:14.638Z,96800.92
2017-11-17T15:50:42.205Z,96802.39
2017-11-17T15:53:09.803Z,96803.53
2017-11-17T15:55:39.139Z,96802.27
2017-11-17T15:58:06.792Z,96798.95
2017-11-17T16:00:34.412Z,96799.50
2017-11-17T16:03:03.124Z,96802.11
2017-11-17T16:05:31.514Z,96808.32
2017-11-17T16:07:59.215Z,96799.45
2017-11-17T16:10:26.810Z,96801.69
2017-11-17T16:12:54.400Z,96798.37
2017-11-17T16:15:22.008Z,96805.89
2017-11-17T16:17:49.587Z,96805.88
2017-11-17T16:20:17.241Z,96800.11
2017-11-17T16:22:44.824Z,96811.28
2017-11-17T16:25:13.845Z,96801.08
2017-11-17T16:27:41.452Z,96804.77
2017-11-17T16:30:09.086Z,96806.45
2017-11-17T16:32:36.670Z,96801.33
2017-11-17T16:35:04.337Z,96811.30
2017-11-17T16:37:31.997Z,96807.48
2017-11-17T16:39:59.663Z,96799.42
2017-11-17T16:42:27.273Z,96803.58
2017-11-17T16:44:54.875Z,96800.87
2017-11-17T16:47:22.466Z,96793.77
2017-11-17T16:49:50.052Z,96793.56
2017-11-17T16:52:17.617Z,96796.84
2017-11-17T16:54:45.229Z,96796.35
2017-11-17T16:57:12.862Z,96796.06
2017-11-17T16:59:40.479Z,96803.23
2017-11-17T17:02:08.123Z,96797.22
2017-11-17T17:04:35.698Z,96796.88
2017-11-17T17:07:03.266Z,96796.30
2017-11-17T17:09:30.891Z,96790.20
2017-11-17T17:11:58.456Z,96792.78
2017-11-17T17:14:26.038Z,96791.77
2017-11-17T17:16:53.724Z,96799.65
2017-11-17T17:19:21.297Z,96799.09
2017-11-17T17:21:48.860Z,96798.19
2017-11-17T17:24:16.469Z,96800.37
2017-11-17T17:26:44.042Z,96802.19
2017-11-17T17:29:12.643Z,96798.02
2017-11-17T17:31:40.323Z,96805.53
2017-11-17T17:34:08.129Z,96803.02
2017-11-17T17:36:35.706Z,96808.77
2017-11-17T17:39:03.380Z,96806.89
2017-11-17T17:41:30.931Z,96810.42
2017-11-17T17:43:58.534Z,96808.16
2017-11-17T17:46:26.112Z,96803.20
2017-11-17T17:48:53.781Z,96802.28
2017-11-17T17:51:21.393Z,96803.08
2017-11-17T17:53:49.061Z,96801.63
2017-11-17T17:56:16.709Z,96799.25
2017-11-17T17:58:44.324Z,96807.44
2017-11-17T18:01:12.018Z,96807.73
2017-11-17T18:03:39.590Z,96807.35
2017-11-17T18:06:07.221Z,96807.88
2017-11-17T18:08:34.872Z,96808.19
2017-11-17T18:11:02.430Z,96810.19
2017-11-17T18:13:30.044Z,96816.59
2017-11-17T18:15:57.659Z,96811.40
2017-11-17T18:18:25.252Z,96810.67
2017-11-17T18:20:52.840Z,96803.85
2017-11-17T18:23:20.545Z,96811.80
2017-11-17T18:25:49.480Z,96811.63
2017-11-17T18:28:17.136Z,96808.80
2017-11-17T18:30:44.753Z,96815.95
2017-11-17T18:33:12.499Z,96812.95
2017-11-17T18:35:40.066Z,96807.65
2017-11-17T18:38:07.721Z,96811.76
2017-11-17T18:40:35.248Z,96802.13
2017-11-17T18:43:02.838Z,96801.73
2017-11-17T18:45:30.430Z,96802.46
2017-11-17T18:47:57.987Z,96805.42
2017-11-17T18:50:25.762Z,96810.25
2017-11-17T18:55:25.130Z,96814.42
2017-11-17T18:57:52.694Z,96811.89
2017-11-17T19:00:20.300Z,96814.56
2017-11-17T19:02:47.891Z,96814.51
2017-11-17T19:05:15.474Z,96811.96
2017-11-17T19:07:43.051Z,96806.57
2017-11-17T19:10:10.742Z,96805.09
2017-11-17T19:12:38.322Z,96804.39
2017-11-17T19:15:06.023Z,96798.02
2017-11-17T19:17:33.597Z,96796.70
2017-11-17T19:20:01.188Z,96804.03
2017-11-17T19:22:28.751Z,96802.62
2017-11-17T19:24:56.822Z,96802.40
2017-11-17T19:27:24.451Z,96801.50
2017-11-17T19:29:53.640Z,96803.73
2017-11-17T19:32:21.408Z,96795.28
2017-11-17T19:34:48.986Z,96789.02
2017-11-17T19:37:16.558Z,96792.77
2017-11-17T19:39:44.167Z,96792.81
2017-11-17T19:42:11.729Z,96792.36
2017-11-17T19:44:39.295Z,96790.06
2017-11-17T19:47:06.983Z,96794.98
2017-11-17T19:49:34.536Z,96793.73
2017-11-17T19:52:02.106Z,96792.47
2017-11-17T19:54:29.756Z,96785.66
2017-11-17T19:56:57.327Z,96790.84
2017-11-17T19:59:26.472Z,96794.57
2017-11-17T20:01:54.026Z,96789.87
2017-11-17T20:04:21.610Z,96787.75
2017-11-17T20:06:49.154Z,96791.19
2017-11-17T20:09:16.736Z,96788.26
2017-11-17T20:11:44.318Z,96795.78
2017-11-17T20:14:11.881Z,96789.46
2017-11-17T20:16:39.443Z,96790.66
2017-11-17T20:19:07.039Z,96788.59
2017-11-17T20:21:34.598Z,96787.23
2017-11-17T20:24:02.164Z,96783.42
2017-11-17T20:26:29.723Z,96783.69
2017-11-17T20:28:57.313Z,96787.10
2017-11-17T20:31:24.880Z,96778.97
2017-11-17T20:33:52.553Z,96778.04
2017-11-17T20:36:21.347Z,96774.23
2017-11-17T20:38:48.950Z,96775.81
2017-11-17T20:41:16.528Z,96772.93
2017-11-17T20:43:44.193Z,96772.44
2017-11-17T20:46:11.823Z,96772.58
2017-11-17T20:48:39.392Z,96771.86
2017-11-17T20:51:07.015Z,96769.33
2017-11-17T20:53:34.716Z,96774.31
2017-11-17T20:56:02.314Z,96775.15
2017-11-17T20:58:29.915Z,96774.33
2017-11-17T21:00:57.488Z,96766.02
2017-11-17T21:03:25.087Z,96767.91
2017-11-17T21:05:52.764Z,96768.78
2017-11-17T21:08:21.348Z,96755.83
2017-11-17T21:10:49.018Z,96753.46
2017-11-17T21:13:16.616Z,96761.66
2017-11-17T21:15:44.236Z,96760.81
2017-11-17T21:18:11.835Z,96765.88
2017-11-17T21:20:39.590Z,96762.03
2017-11-17T21:23:07.225Z,96761.95
2017-11-17T21:25:34.874Z,96758.36
2017-11-17T21:28:02.490Z,96754.45
2017-11-17T21:30:30.879Z,96753.77
2017-11-17T21:32:58.447Z,96749.56
2017-11-17T21:35:26.033Z,96751.81
2017-11-17T21:37:53.611Z,96751.69
2017-11-17T21:40:21.212Z,96750.34
2017-11-17T21:42:48.868Z,96755.83
2017-11-17T21:45:16.951Z,96753.42
2017-11-17T21:47:44.502Z,96752.66
2017-11-17T21:50:12.320Z,96751.50
2017-11-17T21:52:39.907Z,96754.39
2017-11-17T21:55:07.556Z,96749.27
2017-11-17T21:57:35.322Z,96743.98
2017-11-17T22:00:03.013Z,96746.53
2017-11-17T22:02:30.602Z,96746.45
2017-11-17T22:04:58.227Z,96741.99
2017-11-17T22:07:25.955Z,96750.44
2017-11-17T22:09:53.560Z,96742.44
2017-11-17T22:12:21.160Z,96737.59
2017-11-17T22:14:48.700Z,96737.12
2017-11-17T22:17:16.683Z,96730.36
2017-11-17T22:19:44.327Z,96732.03
2017-11-17T22:22:11.936Z,96735.54
2017-11-17T22:24:39.492Z,96731.70
2017-11-17T22:27:07.292Z,96723.10
2017-11-17T22:29:34.836Z,96733.27
2017-11-17T22:32:02.385Z,96730.16
2017-11-17T22:34:29.966Z,96722.00
2017-11-17T22:36:57.510Z,96722.33
2017-11-17T22:39:25.073Z,96724.45
2017-11-17T22:41:52.662Z,96725.98
2017-11-17T22:44:20.222Z,96731.28
2017-11-17T22:46:47.773Z,96722.95
2017-11-17T22:49:15.373Z,96721.05
2017-11-17T22:51:42.948Z,96724.00
2017-11-17T22:54:10.628Z,96718.11
2017-11-17T22:56:38.205Z,96714.39
2017-11-17T22:59:05.765Z,96716.47
2017-11-17T23:01:34.790Z,96711.14
2017-11-17T23:04:02.514Z,96703.97
2017-11-17T23:06:30.085Z,96701.42
2017-11-17T23:08:57.684Z,96697.20
2017-11-17T23:11:25.325Z,96692.05
2017-11-17T23:13:52.895Z,96689.90
2017-11-17T23:16:20.480Z,96692.77
2017-11-17T23:18:48.132Z,96690.80
2017-11-17T23:21:15.707Z,96685.23
2017-11-17T23:23:43.296Z,96691.30
2017-11-17T23:26:10.895Z,96686.91
2017-11-17T23:28:38.458Z,96690.73
2017-11-17T23:31:06.125Z,96693.05
2017-11-17T23:33:33.816Z,96695.75
2017-11-17T23:36:01.394Z,96696.58
2017-11-17T23:38:28.980Z,96687.72
2017-11-17T23:40:56.575Z,96689.75
2017-11-17T23:43:24.252Z,96684.19
2017-11-17T23:45:51.854Z,96683.81
2017-11-17T23:48:19.456Z,96680.19
2017-11-17T23:50:47.062Z,96678.90
2017-11-17T23:53:14.703Z,96681.58
2017-11-17T23:55:42.320Z,96685.86
2017-11-17T23:58:10.868Z,96676.81
